Miranda, South Dakota
Current Conditions -  °F | °C
As of 8:53 AM on Friday 28 Nov 2014 (Local Time) from KABR Reporting Station
Broken Clouds Broken Clouds  
Wind Chill:   Ceiling: 11000
Heat Index: 17°   Visibility: 10mi
Dew Point: 12°   Wind: 8mph
Humidity: 81%   Direction: 60°ENE
Pressure: 29.82"   Gusts: NA
Location:  45.0672°N, 99.0996°W
Report Text: KABR 281453Z AUTO 06007KT 10SM FEW085 BKN110 M08/M11 A2982 RMK AO2 SLP121 T10831111 58011
Loading
Personal Weather Stations






























Interactive Weather Map New forecast layout! Learn more

10-Day Weather Forecast

Advertisements
Track Severe Weather on mobile